Terminal Aerodrome Forecast
Issued by NWS Sioux Falls, SD

Home | Current Version | Previous Version | Graphics & Text | Print | Product List | Glossary On
Versions: 1 2 3 4 5 6 7 8 9 10 11 12 13 14 15 16 17 18 19 20 21 22 23
000
FTUS43 KFSD 251446 AAC
TAFHON
TAF AMD
KHON 251446Z 2515/2612 01007KT 2SM -SN OVC020
      TEMPO 2515/2517 1/2SM SN OVC012
     FM252100 36015KT 3SM -SN BR OVC010
     FM260400 35012KT P6SM OVC011=

USA.gov is the U.S. government's official web portal to all federal, state and local government web resources and services.